createdAt,value
2022-08-09T00:01:10.675Z,17.10
2022-08-09T00:04:08.534Z,17.10
2022-08-09T00:06:30.168Z,17.10
2022-08-09T00:08:59.021Z,17.10
2022-08-09T00:11:55.025Z,17.10
2022-08-09T00:14:17.379Z,17.00
2022-08-09T00:16:49.389Z,16.90
2022-08-09T00:19:18.458Z,16.80
2022-08-09T00:21:56.589Z,16.80
2022-08-09T00:24:25.215Z,16.80
2022-08-09T00:26:54.682Z,16.80
2022-08-09T00:29:39.228Z,16.80
2022-08-09T00:32:08.305Z,16.80
2022-08-09T00:34:39.631Z,16.70
2022-08-09T00:37:13.208Z,16.80
2022-08-09T00:40:10.219Z,16.80
2022-08-09T00:46:56.589Z,16.70
2022-08-09T00:49:28.095Z,16.70
2022-08-09T00:51:57.158Z,15.20
2022-08-09T00:54:35.251Z,16.50
2022-08-09T00:57:08.804Z,18.50
2022-08-09T00:59:41.378Z,16.50
2022-08-09T01:02:15.840Z,16.70
2022-08-09T01:04:58.004Z,16.70
2022-08-09T01:07:37.754Z,16.40
2022-08-09T01:10:38.845Z,16.30
2022-08-09T01:13:24.969Z,16.30
2022-08-09T01:15:58.087Z,16.30
2022-08-09T01:18:29.959Z,18.50
2022-08-09T01:21:19.619Z,16.30
2022-08-09T01:24:08.826Z,16.20
2022-08-09T01:27:00.858Z,16.20
2022-08-09T01:29:56.305Z,16.20
2022-08-09T01:32:31.067Z,16.70
2022-08-09T01:35:00.519Z,17.20
2022-08-09T01:38:09.800Z,16.10
2022-08-09T01:40:31.803Z,16.10
2022-08-09T01:42:58.609Z,16.10
2022-08-09T01:45:25.519Z,16.00
2022-08-09T01:47:52.440Z,16.00
2022-08-09T01:50:19.287Z,16.00
2022-08-09T01:52:56.845Z,15.90
2022-08-09T01:55:24.812Z,15.90
2022-08-09T01:57:53.074Z,15.80
2022-08-09T02:00:35.831Z,15.80
2022-08-09T02:03:03.247Z,15.70
2022-08-09T02:05:35.481Z,15.70
2022-08-09T02:08:39.538Z,15.60
2022-08-09T02:10:55.321Z,15.60
2022-08-09T02:13:26.094Z,15.70
2022-08-09T02:16:04.983Z,15.50
2022-08-09T02:18:31.918Z,15.60
2022-08-09T02:21:00.179Z,15.50
2022-08-09T02:23:39.823Z,15.60
2022-08-09T02:26:25.378Z,15.40
2022-08-09T02:29:00.054Z,15.40
2022-08-09T02:31:36.431Z,15.30
2022-08-09T02:34:13.268Z,15.30
2022-08-09T02:36:46.577Z,15.30
2022-08-09T02:39:19.905Z,15.30
2022-08-09T02:41:53.740Z,15.40
2022-08-09T02:44:29.378Z,15.20
2022-08-09T02:46:58.120Z,15.30
2022-08-09T02:49:38.508Z,15.20
2022-08-09T02:52:06.470Z,15.20
2022-08-09T02:54:34.715Z,15.20
2022-08-09T02:57:14.084Z,15.20
2022-08-09T03:00:20.871Z,15.20
2022-08-09T03:02:46.471Z,15.10
2022-08-09T03:05:27.103Z,15.00
2022-08-09T03:07:55.109Z,15.00
2022-08-09T03:10:22.901Z,15.00
2022-08-09T03:12:52.156Z,14.90
2022-08-09T03:15:20.791Z,14.90
2022-08-09T03:17:57.793Z,14.90
2022-08-09T03:20:29.545Z,14.80
2022-08-09T03:22:58.209Z,14.70
2022-08-09T03:25:57.008Z,14.80
2022-08-09T03:28:12.656Z,14.70
2022-08-09T03:30:40.188Z,14.70
2022-08-09T03:33:17.660Z,14.70
2022-08-09T03:36:15.945Z,14.60
2022-08-09T03:38:41.928Z,14.70
2022-08-09T03:41:15.306Z,14.60
2022-08-09T03:43:51.846Z,14.60
2022-08-09T03:46:31.440Z,14.60
2022-08-09T03:48:59.386Z,14.70
2022-08-09T03:51:57.431Z,14.60
2022-08-09T03:54:18.078Z,14.60
2022-08-09T03:56:57.954Z,14.60
2022-08-09T03:59:42.710Z,14.60
2022-08-09T04:02:11.931Z,14.80
2022-08-09T04:04:41.255Z,14.50
2022-08-09T04:07:13.170Z,14.50
2022-08-09T04:09:48.313Z,14.50
2022-08-09T04:12:41.620Z,14.50
2022-08-09T04:15:29.642Z,14.50
2022-08-09T04:17:58.719Z,14.50
2022-08-09T04:20:25.985Z,14.40
2022-08-09T04:22:53.343Z,14.40
2022-08-09T04:25:20.952Z,14.40
2022-08-09T04:27:49.373Z,14.60
2022-08-09T04:30:20.936Z,14.40
2022-08-09T04:32:50.520Z,14.40
2022-08-09T04:35:17.464Z,14.70
2022-08-09T04:37:49.647Z,14.30
2022-08-09T04:40:28.614Z,14.30
2022-08-09T04:43:03.458Z,14.40
2022-08-09T04:45:31.058Z,14.20
2022-08-09T04:48:07.941Z,12.90
2022-08-09T04:50:38.110Z,14.20
2022-08-09T04:53:11.645Z,14.30
2022-08-09T04:55:52.610Z,14.30
2022-08-09T04:58:24.532Z,14.30
2022-08-09T05:00:55.291Z,14.50
2022-08-09T05:03:40.434Z,14.50
2022-08-09T05:06:21.767Z,14.30
2022-08-09T05:09:00.787Z,14.30
2022-08-09T05:11:32.226Z,14.30
2022-08-09T05:14:06.229Z,14.30
2022-08-09T05:16:58.379Z,14.30
2022-08-09T05:19:26.082Z,14.30
2022-08-09T05:21:55.327Z,14.30
2022-08-09T05:24:24.303Z,14.40
2022-08-09T05:26:52.195Z,14.40
2022-08-09T05:29:23.987Z,14.40
2022-08-09T05:31:56.315Z,14.40
2022-08-09T05:34:30.070Z,14.40
2022-08-09T05:37:06.344Z,14.90
2022-08-09T05:39:43.831Z,14.40
2022-08-09T05:42:21.320Z,14.50
2022-08-09T05:44:50.647Z,14.50
2022-08-09T05:47:19.362Z,14.60
2022-08-09T05:50:25.629Z,14.60
2022-08-09T05:52:36.192Z,14.80
2022-08-09T05:55:07.268Z,15.00
2022-08-09T05:57:56.099Z,15.10
2022-08-09T06:00:23.147Z,15.30
2022-08-09T06:03:44.057Z,15.50
2022-08-09T06:06:21.143Z,15.80
2022-08-09T06:08:52.475Z,17.80
2022-08-09T06:11:19.718Z,16.20
2022-08-09T06:13:51.251Z,16.50
2022-08-09T06:16:18.126Z,16.50
2022-08-09T06:18:45.025Z,16.70
2022-08-09T06:21:11.903Z,17.00
2022-08-09T06:23:57.135Z,17.10
2022-08-09T06:26:28.403Z,17.20
2022-08-09T06:29:00.087Z,17.40
2022-08-09T06:31:39.862Z,17.50
2022-08-09T06:34:18.941Z,17.60
2022-08-09T06:36:46.013Z,17.80
2022-08-09T06:39:13.564Z,18.00
2022-08-09T06:42:09.149Z,18.20
2022-08-09T06:44:31.074Z,18.20
2022-08-09T06:46:58.116Z,18.50
2022-08-09T06:49:44.636Z,18.70
2022-08-09T06:52:15.863Z,18.90
2022-08-09T06:54:43.525Z,19.10
2022-08-09T06:57:11.979Z,19.30
2022-08-09T07:00:49.068Z,19.50
2022-08-09T07:02:30.822Z,19.70
2022-08-09T07:04:57.834Z,19.90
2022-08-09T07:07:58.598Z,20.20
2022-08-09T07:10:29.596Z,20.20
2022-08-09T07:12:58.444Z,20.40
2022-08-09T07:16:35.245Z,20.40
2022-08-09T07:18:14.195Z,20.40
2022-08-09T07:20:43.772Z,20.60
2022-08-09T07:23:18.919Z,21.00
2022-08-09T07:25:47.930Z,21.00
2022-08-09T07:28:28.071Z,21.10
2022-08-09T07:30:55.440Z,21.20
2022-08-09T07:33:22.292Z,21.30
2022-08-09T07:35:54.263Z,21.40
2022-08-09T07:38:21.441Z,21.50
2022-08-09T07:41:08.124Z,21.50
2022-08-09T07:43:49.674Z,21.70
2022-08-09T07:46:19.466Z,21.70
2022-08-09T07:48:52.821Z,21.70
2022-08-09T07:52:05.286Z,21.80
2022-08-09T07:54:14.181Z,21.90
2022-08-09T07:56:45.058Z,23.00
2022-08-09T07:59:34.233Z,22.10
2022-08-09T08:02:05.440Z,22.20
2022-08-09T08:04:33.139Z,22.30
2022-08-09T08:07:14.896Z,22.50
2022-08-09T08:10:07.502Z,22.70
2022-08-09T08:12:42.301Z,22.80
2022-08-09T08:15:16.815Z,23.00
2022-08-09T08:17:53.329Z,23.20
2022-08-09T08:20:29.491Z,23.30
2022-08-09T08:23:03.680Z,23.30
2022-08-09T08:25:44.586Z,23.60
2022-08-09T08:28:14.984Z,23.70
2022-08-09T08:30:43.846Z,23.80
2022-08-09T08:33:11.812Z,24.00
2022-08-09T08:35:59.764Z,24.10
2022-08-09T08:38:26.123Z,24.20
2022-08-09T08:40:55.773Z,24.30
2022-08-09T08:43:23.749Z,24.40
2022-08-09T08:46:32.192Z,24.50
2022-08-09T08:48:52.029Z,24.70
2022-08-09T08:51:22.591Z,24.80
2022-08-09T08:54:04.308Z,24.90
2022-08-09T08:56:38.576Z,25.00
2022-08-09T08:59:19.372Z,25.10
2022-08-09T09:01:52.874Z,25.30
2022-08-09T09:04:27.058Z,25.40
2022-08-09T09:06:55.867Z,25.50
2022-08-09T09:09:58.600Z,25.60
2022-08-09T09:12:16.419Z,25.80
2022-08-09T09:14:44.482Z,26.00
2022-08-09T09:17:16.269Z,26.10
2022-08-09T09:19:43.646Z,26.20
2022-08-09T09:22:15.842Z,26.30
2022-08-09T09:25:00.793Z,26.50
2022-08-09T09:28:04.985Z,26.60
2022-08-09T09:30:41.373Z,26.80
2022-08-09T09:33:16.667Z,27.00
2022-08-09T09:36:01.679Z,27.10
2022-08-09T09:38:49.338Z,27.20
2022-08-09T09:41:28.309Z,27.30
2022-08-09T09:44:12.312Z,27.40
2022-08-09T09:46:50.710Z,27.40
2022-08-09T09:49:32.060Z,27.40
2022-08-09T09:52:33.725Z,27.40
2022-08-09T09:55:02.848Z,27.50
2022-08-09T09:58:02.835Z,27.50
2022-08-09T10:00:32.088Z,27.70
2022-08-09T10:03:00.626Z,27.80
2022-08-09T10:06:04.903Z,27.90
2022-08-09T10:08:32.167Z,28.10
2022-08-09T10:10:59.054Z,28.30
2022-08-09T10:13:45.149Z,28.40
2022-08-09T10:16:58.313Z,28.60
2022-08-09T10:19:07.148Z,28.70
2022-08-09T10:21:44.574Z,28.80
2022-08-09T10:24:25.395Z,28.80
2022-08-09T10:26:56.126Z,28.90
2022-08-09T10:30:22.147Z,28.90
2022-08-09T10:32:38.213Z,29.00
2022-08-09T10:34:58.485Z,29.10
2022-08-09T10:37:26.060Z,29.10
2022-08-09T10:39:54.289Z,29.20
2022-08-09T10:42:21.640Z,29.30
2022-08-09T10:44:57.497Z,29.30
2022-08-09T10:48:26.553Z,29.50
2022-08-09T10:51:09.966Z,29.50
2022-08-09T10:54:02.117Z,29.60
2022-08-09T10:56:41.902Z,29.70
2022-08-09T10:59:31.405Z,29.80
2022-08-09T11:03:11.750Z,29.80
2022-08-09T11:05:06.974Z,29.80
2022-08-09T11:07:56.908Z,29.80
2022-08-09T11:10:53.229Z,29.70
2022-08-09T11:13:51.256Z,29.80
2022-08-09T11:16:35.272Z,29.90
2022-08-09T11:19:09.616Z,30.00
2022-08-09T11:21:55.006Z,30.20
2022-08-09T11:25:08.166Z,30.30
2022-08-09T11:28:05.637Z,30.30
2022-08-09T11:30:34.363Z,30.30
2022-08-09T11:33:17.323Z,30.20
2022-08-09T11:35:49.649Z,30.30
2022-08-09T11:38:32.688Z,30.30
2022-08-09T11:41:13.715Z,30.50
2022-08-09T11:43:43.133Z,30.60
2022-08-09T11:46:10.337Z,30.70
2022-08-09T11:48:49.014Z,30.80
2022-08-09T11:53:03.222Z,30.80
2022-08-09T11:54:21.387Z,30.90
2022-08-09T11:57:47.668Z,31.10
2022-08-09T12:00:27.342Z,31.20
2022-08-09T12:02:56.490Z,31.20
2022-08-09T12:05:39.503Z,31.30
2022-08-09T12:08:12.160Z,31.30
2022-08-09T12:10:48.315Z,31.40
2022-08-09T12:14:07.632Z,31.50
2022-08-09T12:16:37.657Z,31.50
2022-08-09T12:19:06.833Z,31.50
2022-08-09T12:21:50.502Z,31.60
2022-08-09T12:24:24.954Z,31.60
2022-08-09T12:28:58.552Z,31.60
2022-08-09T12:30:02.243Z,31.80
2022-08-09T12:32:40.867Z,32.00
2022-08-09T12:35:10.818Z,32.10
2022-08-09T12:37:44.150Z,32.10
2022-08-09T12:40:18.956Z,32.00
2022-08-09T12:42:46.040Z,32.10
2022-08-09T12:45:32.280Z,32.10
2022-08-09T12:48:00.104Z,32.20
2022-08-09T12:50:27.611Z,32.30
2022-08-09T12:53:09.666Z,32.40
2022-08-09T12:56:12.833Z,32.50
2022-08-09T12:58:29.348Z,32.70
2022-08-09T13:00:56.504Z,32.80
2022-08-09T13:03:53.701Z,32.80
2022-08-09T13:06:36.137Z,32.90
2022-08-09T13:09:18.023Z,33.00
2022-08-09T13:11:47.045Z,33.10
2022-08-09T13:14:40.976Z,33.20
2022-08-09T13:17:08.565Z,33.30
2022-08-09T13:20:10.518Z,33.30
2022-08-09T13:22:36.587Z,33.30
2022-08-09T13:25:15.672Z,33.20
2022-08-09T13:27:54.740Z,32.90
2022-08-09T13:30:50.130Z,32.60
2022-08-09T13:33:17.168Z,32.60
2022-08-09T13:36:24.550Z,32.70
2022-08-09T13:38:57.486Z,32.80
2022-08-09T13:41:59.535Z,32.90
2022-08-09T13:44:13.625Z,33.10
2022-08-09T13:47:29.744Z,33.10
2022-08-09T13:49:39.767Z,33.10
2022-08-09T13:52:18.231Z,33.10
2022-08-09T13:54:58.735Z,33.10
2022-08-09T13:57:37.017Z,33.30
2022-08-09T14:00:17.723Z,33.50
2022-08-09T14:03:16.768Z,33.60
2022-08-09T14:06:01.247Z,33.90
2022-08-09T14:08:21.514Z,34.20
2022-08-09T14:10:50.319Z,34.40
2022-08-09T14:14:16.037Z,34.40
2022-08-09T14:16:14.036Z,34.40
2022-08-09T14:18:49.127Z,34.30
2022-08-09T14:21:18.600Z,34.20
2022-08-09T14:23:54.687Z,34.30
2022-08-09T14:26:33.579Z,34.30
2022-08-09T14:29:02.791Z,34.30
2022-08-09T14:31:36.151Z,34.30
2022-08-09T14:34:17.723Z,34.40
2022-08-09T14:36:59.463Z,34.50
2022-08-09T14:39:45.538Z,34.70
2022-08-09T14:42:13.425Z,34.90
2022-08-09T14:44:59.951Z,35.10
2022-08-09T14:47:45.042Z,35.30
2022-08-09T14:50:16.107Z,35.50
2022-08-09T14:52:43.234Z,35.70
2022-08-09T14:55:20.354Z,35.80
2022-08-09T14:57:48.987Z,35.90
2022-08-09T15:00:16.489Z,35.70
2022-08-09T15:02:47.528Z,35.80
2022-08-09T15:05:18.652Z,35.70
2022-08-09T15:07:56.633Z,35.80
2022-08-09T15:10:27.736Z,35.90
2022-08-09T15:12:55.280Z,36.30
2022-08-09T15:15:22.209Z,36.40
2022-08-09T15:17:52.345Z,36.70
2022-08-09T15:22:01.867Z,36.60
2022-08-09T15:24:01.831Z,36.20
2022-08-09T15:25:58.387Z,35.80
2022-08-09T15:28:27.466Z,36.10
2022-08-09T15:31:07.462Z,36.40
2022-08-09T15:34:17.992Z,36.50
2022-08-09T15:36:29.149Z,36.30
2022-08-09T15:39:00.489Z,35.90
2022-08-09T15:41:31.586Z,35.60
2022-08-09T15:44:01.686Z,35.10
2022-08-09T15:46:33.845Z,34.40
2022-08-09T15:49:20.695Z,33.70
2022-08-09T15:52:02.965Z,33.40
2022-08-09T15:54:44.231Z,33.20
2022-08-09T15:57:13.752Z,33.00
2022-08-09T15:59:41.128Z,33.40
2022-08-09T16:02:09.780Z,33.40
2022-08-09T16:04:40.270Z,33.10
2022-08-09T16:07:10.163Z,32.70
2022-08-09T16:09:57.542Z,32.70
2022-08-09T16:12:26.184Z,33.10
2022-08-09T16:14:57.656Z,33.60
2022-08-09T16:17:24.478Z,33.80
2022-08-09T16:20:05.280Z,34.00
2022-08-09T16:22:42.429Z,34.10
2022-08-09T16:25:15.937Z,34.30
2022-08-09T16:27:42.814Z,34.60
2022-08-09T16:30:15.253Z,35.00
2022-08-09T16:33:11.281Z,35.30
2022-08-09T16:35:56.810Z,35.10
2022-08-09T16:38:26.330Z,35.00
2022-08-09T16:40:53.216Z,35.00
2022-08-09T16:43:20.883Z,35.10
2022-08-09T16:45:53.447Z,35.10
2022-08-09T16:48:38.091Z,35.10
2022-08-09T16:51:14.191Z,35.20
2022-08-09T16:54:16.446Z,35.30
2022-08-09T16:56:32.561Z,35.30
2022-08-09T16:59:06.782Z,35.10
2022-08-09T17:01:37.266Z,35.00
2022-08-09T17:04:06.516Z,34.90
2022-08-09T17:07:09.289Z,34.90
2022-08-09T17:09:45.655Z,35.00
2022-08-09T17:12:08.106Z,34.90
2022-08-09T17:14:35.339Z,34.80
2022-08-09T17:17:02.838Z,34.60
2022-08-09T17:19:47.652Z,34.20
2022-08-09T17:22:23.493Z,33.60
2022-08-09T17:24:55.280Z,32.70
2022-08-09T17:27:22.796Z,32.00
2022-08-09T17:29:51.063Z,31.40
2022-08-09T17:32:20.303Z,31.00
2022-08-09T17:35:07.334Z,30.60
2022-08-09T17:38:11.770Z,30.10
2022-08-09T17:40:26.368Z,29.80
2022-08-09T17:42:59.878Z,29.70
2022-08-09T17:46:03.800Z,29.20
2022-08-09T17:48:29.301Z,29.00
2022-08-09T17:51:00.930Z,28.60
2022-08-09T17:53:43.280Z,28.30
2022-08-09T17:56:18.193Z,28.20
2022-08-09T17:58:45.347Z,28.00
2022-08-09T18:01:15.561Z,27.90
2022-08-09T18:03:49.942Z,27.60
2022-08-09T18:06:31.301Z,27.40
2022-08-09T18:09:03.651Z,27.10
2022-08-09T18:12:04.789Z,26.80
2022-08-09T18:14:21.893Z,26.60
2022-08-09T18:16:49.706Z,26.30
2022-08-09T18:21:00.101Z,26.10
2022-08-09T18:22:04.044Z,26.00
2022-08-09T18:24:31.247Z,25.90
2022-08-09T18:26:58.129Z,25.70
2022-08-09T18:30:41.447Z,25.60
2022-08-09T18:32:19.131Z,25.50
2022-08-09T18:34:46.145Z,25.30
2022-08-09T18:37:46.844Z,25.10
2022-08-09T18:40:02.119Z,24.90
2022-08-09T18:42:29.563Z,24.70
2022-08-09T18:44:57.022Z,24.50
2022-08-09T18:47:37.001Z,24.30
2022-08-09T18:50:05.949Z,24.10
2022-08-09T18:52:36.194Z,23.90
2022-08-09T18:55:04.133Z,23.80
2022-08-09T18:57:42.718Z,23.70
2022-08-09T19:00:10.829Z,23.60
2022-08-09T19:02:38.082Z,23.40
2022-08-09T19:05:19.707Z,23.30
2022-08-09T19:08:04.249Z,23.10
2022-08-09T19:10:38.946Z,23.00
2022-08-09T19:13:20.708Z,22.80
2022-08-09T19:15:56.491Z,22.70
2022-08-09T19:18:33.904Z,22.60
2022-08-09T19:21:09.153Z,22.40
2022-08-09T19:24:36.155Z,22.30
2022-08-09T19:26:32.151Z,22.20
2022-08-09T19:29:01.773Z,22.10
2022-08-09T19:31:43.898Z,22.20
2022-08-09T19:34:21.709Z,22.20
2022-08-09T19:36:51.609Z,22.30
2022-08-09T19:39:20.766Z,22.30
2022-08-09T19:42:05.734Z,22.30
2022-08-09T19:44:34.208Z,22.30
2022-08-09T19:47:01.785Z,22.20
2022-08-09T19:50:08.285Z,22.10
2022-08-09T19:52:15.909Z,22.10
2022-08-09T19:54:45.216Z,22.20
2022-08-09T19:57:12.437Z,22.30
2022-08-09T19:59:59.318Z,22.20
2022-08-09T20:04:12.329Z,22.20
2022-08-09T20:05:15.219Z,22.20
2022-08-09T20:07:59.377Z,22.20
2022-08-09T20:10:36.320Z,22.20
2022-08-09T20:13:05.346Z,22.10
2022-08-09T20:16:35.865Z,22.00
2022-08-09T20:18:20.164Z,22.00
2022-08-09T20:20:50.527Z,22.10
2022-08-09T20:23:20.992Z,22.10
2022-08-09T20:25:53.446Z,22.20
2022-08-09T20:28:28.205Z,22.20
2022-08-09T20:31:04.909Z,22.30
2022-08-09T20:33:40.886Z,22.40
2022-08-09T20:36:10.639Z,22.40
2022-08-09T20:41:32.041Z,22.50
2022-08-09T20:44:02.450Z,22.40
2022-08-09T20:46:41.826Z,22.40
2022-08-09T20:49:11.308Z,22.30
2022-08-09T20:51:40.879Z,22.30
2022-08-09T20:54:08.077Z,22.40
2022-08-09T20:56:41.024Z,22.40
2022-08-09T20:59:08.007Z,22.40
2022-08-09T21:01:50.122Z,22.30
2022-08-09T21:05:52.967Z,22.40
2022-08-09T21:07:13.236Z,22.50
2022-08-09T21:09:56.869Z,22.60
2022-08-09T21:15:13.571Z,22.60
2022-08-09T21:18:23.979Z,22.50
2022-08-09T21:20:30.061Z,22.30
2022-08-09T21:22:57.760Z,22.20
2022-08-09T21:25:44.356Z,22.10
2022-08-09T21:28:33.485Z,22.10
2022-08-09T21:31:19.371Z,22.10
2022-08-09T21:33:52.125Z,22.20
2022-08-09T21:36:27.935Z,22.30
2022-08-09T21:38:57.183Z,22.30
2022-08-09T21:42:04.706Z,22.20
2022-08-09T21:44:33.356Z,22.30
2022-08-09T21:47:05.305Z,22.40
2022-08-09T21:49:39.910Z,22.50
2022-08-09T21:52:16.526Z,22.50
2022-08-09T21:54:51.095Z,22.50
2022-08-09T21:57:38.302Z,22.30
2022-08-09T22:00:26.742Z,22.10
2022-08-09T22:03:04.689Z,21.90
2022-08-09T22:05:36.791Z,21.90
2022-08-09T22:08:13.133Z,21.90
2022-08-09T22:11:04.962Z,21.80
2022-08-09T22:13:34.731Z,21.80
2022-08-09T22:16:03.762Z,21.70
2022-08-09T22:18:33.019Z,21.60
2022-08-09T22:21:00.925Z,21.60
2022-08-09T22:23:35.430Z,21.60
2022-08-09T22:26:34.123Z,21.60
2022-08-09T22:29:05.364Z,21.50
2022-08-09T22:31:35.793Z,21.50
2022-08-09T22:34:02.733Z,21.30
2022-08-09T22:36:29.614Z,21.30
2022-08-09T22:39:20.754Z,21.20
2022-08-09T22:41:59.220Z,21.20
2022-08-09T22:44:32.793Z,21.20
2022-08-09T22:48:12.117Z,21.20
2022-08-09T22:49:47.546Z,21.10
2022-08-09T22:52:19.738Z,21.10
2022-08-09T22:54:47.117Z,21.00
2022-08-09T22:57:14.249Z,20.90
2022-08-09T22:59:58.383Z,20.80
2022-08-09T23:02:27.477Z,20.70
2022-08-09T23:04:54.829Z,20.60
2022-08-09T23:08:22.758Z,20.50
2022-08-09T23:10:30.491Z,20.40
2022-08-09T23:12:57.845Z,20.20
2022-08-09T23:15:24.745Z,20.10
2022-08-09T23:17:51.551Z,20.00
2022-08-09T23:20:18.365Z,20.00
2022-08-09T23:22:45.265Z,20.00
2022-08-09T23:25:12.103Z,20.00
2022-08-09T23:28:13.985Z,20.10
2022-08-09T23:30:25.741Z,20.10
2022-08-09T23:32:52.565Z,20.00
2022-08-09T23:35:19.397Z,19.90
2022-08-09T23:37:46.214Z,19.80
2022-08-09T23:40:13.420Z,19.70
2022-08-09T23:42:40.666Z,19.60
2022-08-09T23:45:08.866Z,19.50
2022-08-09T23:47:35.876Z,19.40
2022-08-09T23:50:02.795Z,19.30
2022-08-09T23:52:29.647Z,19.10
2022-08-09T23:54:57.828Z,19.10
2022-08-09T23:57:24.671Z,19.00
